sensor_id;sensor_type;location;lat;lon;timestamp;P1;durP1;ratioP1;P2;durP2;ratioP2
49678;SDS011;35570;48.218;16.326;2023-03-31T00:02:21;1.90;;;0.98;;
49678;SDS011;35570;48.218;16.326;2023-03-31T00:04:47;3.88;;;1.10;;
49678;SDS011;35570;48.218;16.326;2023-03-31T00:07:23;3.70;;;1.10;;
49678;SDS011;35570;48.218;16.326;2023-03-31T00:09:50;1.55;;;0.80;;
49678;SDS011;35570;48.218;16.326;2023-03-31T00:12:19;2.10;;;0.90;;
49678;SDS011;35570;48.218;16.326;2023-03-31T00:14:45;2.10;;;0.98;;
49678;SDS011;35570;48.218;16.326;2023-03-31T00:17:12;2.50;;;1.10;;
49678;SDS011;35570;48.218;16.326;2023-03-31T00:19:38;4.40;;;1.15;;
49678;SDS011;35570;48.218;16.326;2023-03-31T00:22:05;1.83;;;0.90;;
49678;SDS011;35570;48.218;16.326;2023-03-31T00:24:32;4.07;;;0.88;;
49678;SDS011;35570;48.218;16.326;2023-03-31T00:26:58;3.13;;;0.82;;
49678;SDS011;35570;48.218;16.326;2023-03-31T00:29:25;2.30;;;1.00;;
49678;SDS011;35570;48.218;16.326;2023-03-31T00:31:51;2.03;;;0.90;;
49678;SDS011;35570;48.218;16.326;2023-03-31T00:34:17;2.17;;;1.00;;
49678;SDS011;35570;48.218;16.326;2023-03-31T00:36:44;3.70;;;1.13;;
49678;SDS011;35570;48.218;16.326;2023-03-31T00:39:13;4.38;;;0.93;;
49678;SDS011;35570;48.218;16.326;2023-03-31T00:41:42;2.88;;;0.80;;
49678;SDS011;35570;48.218;16.326;2023-03-31T00:44:13;1.40;;;0.90;;
49678;SDS011;35570;48.218;16.326;2023-03-31T00:49:04;2.03;;;1.02;;
49678;SDS011;35570;48.218;16.326;2023-03-31T00:51:40;1.67;;;0.93;;
49678;SDS011;35570;48.218;16.326;2023-03-31T00:54:07;2.50;;;0.90;;
49678;SDS011;35570;48.218;16.326;2023-03-31T00:56:34;3.40;;;1.00;;
49678;SDS011;35570;48.218;16.326;2023-03-31T00:59:04;2.15;;;1.02;;
49678;SDS011;35570;48.218;16.326;2023-03-31T01:01:32;3.38;;;1.30;;
49678;SDS011;35570;48.218;16.326;2023-03-31T01:04:00;4.18;;;1.35;;
49678;SDS011;35570;48.218;16.326;2023-03-31T01:06:27;4.97;;;1.40;;
49678;SDS011;35570;48.218;16.326;2023-03-31T01:08:54;3.65;;;1.67;;
49678;SDS011;35570;48.218;16.326;2023-03-31T01:11:22;3.90;;;1.73;;
49678;SDS011;35570;48.218;16.326;2023-03-31T01:13:51;3.33;;;1.45;;
49678;SDS011;35570;48.218;16.326;2023-03-31T01:16:20;2.90;;;1.45;;
49678;SDS011;35570;48.218;16.326;2023-03-31T01:18:46;2.67;;;1.70;;
49678;SDS011;35570;48.218;16.326;2023-03-31T01:32:26;4.70;;;1.80;;
49678;SDS011;35570;48.218;16.326;2023-03-31T01:35:32;2.83;;;1.58;;
49678;SDS011;35570;48.218;16.326;2023-03-31T01:49:24;4.18;;;1.90;;
49678;SDS011;35570;48.218;16.326;2023-03-31T01:57:40;2.75;;;1.90;;
49678;SDS011;35570;48.218;16.326;2023-03-31T02:00:10;4.63;;;2.20;;
49678;SDS011;35570;48.218;16.326;2023-03-31T02:02:44;5.35;;;2.28;;
49678;SDS011;35570;48.218;16.326;2023-03-31T02:05:19;3.85;;;1.90;;
49678;SDS011;35570;48.218;16.326;2023-03-31T02:08:00;4.90;;;2.05;;
49678;SDS011;35570;48.218;16.326;2023-03-31T02:10:32;5.53;;;2.10;;
49678;SDS011;35570;48.218;16.326;2023-03-31T02:13:00;5.03;;;2.33;;
49678;SDS011;35570;48.218;16.326;2023-03-31T02:15:28;3.95;;;2.00;;
49678;SDS011;35570;48.218;16.326;2023-03-31T02:17:57;4.35;;;2.08;;
49678;SDS011;35570;48.218;16.326;2023-03-31T02:20:28;5.32;;;2.20;;
49678;SDS011;35570;48.218;16.326;2023-03-31T02:22:56;3.40;;;2.30;;
49678;SDS011;35570;48.218;16.326;2023-03-31T02:25:25;3.08;;;2.00;;
49678;SDS011;35570;48.218;16.326;2023-03-31T02:27:57;5.80;;;2.23;;
49678;SDS011;35570;48.218;16.326;2023-03-31T02:30:27;3.78;;;2.50;;
49678;SDS011;35570;48.218;16.326;2023-03-31T02:33:01;9.73;;;2.25;;
49678;SDS011;35570;48.218;16.326;2023-03-31T02:35:29;3.75;;;2.25;;
49678;SDS011;35570;48.218;16.326;2023-03-31T02:37:57;4.45;;;2.30;;
49678;SDS011;35570;48.218;16.326;2023-03-31T02:40:23;4.13;;;2.40;;
49678;SDS011;35570;48.218;16.326;2023-03-31T02:42:51;4.30;;;2.45;;
49678;SDS011;35570;48.218;16.326;2023-03-31T02:48:12;6.70;;;3.15;;
49678;SDS011;35570;48.218;16.326;2023-03-31T02:54:24;6.32;;;3.63;;
49678;SDS011;35570;48.218;16.326;2023-03-31T03:05:04;5.32;;;2.78;;
49678;SDS011;35570;48.218;16.326;2023-03-31T03:07:58;5.53;;;2.70;;
49678;SDS011;35570;48.218;16.326;2023-03-31T03:13:28;3.70;;;2.50;;
49678;SDS011;35570;48.218;16.326;2023-03-31T03:16:17;4.87;;;2.57;;
49678;SDS011;35570;48.218;16.326;2023-03-31T03:18:54;3.63;;;1.90;;
49678;SDS011;35570;48.218;16.326;2023-03-31T03:21:21;6.55;;;2.42;;
49678;SDS011;35570;48.218;16.326;2023-03-31T03:23:47;4.20;;;2.33;;
49678;SDS011;35570;48.218;16.326;2023-03-31T03:26:13;4.95;;;2.60;;
49678;SDS011;35570;48.218;16.326;2023-03-31T03:28:39;5.15;;;2.58;;
49678;SDS011;35570;48.218;16.326;2023-03-31T03:31:05;3.85;;;2.60;;
49678;SDS011;35570;48.218;16.326;2023-03-31T03:33:33;4.05;;;2.65;;
49678;SDS011;35570;48.218;16.326;2023-03-31T03:35:59;3.60;;;2.10;;
49678;SDS011;35570;48.218;16.326;2023-03-31T03:38:24;4.50;;;2.35;;
49678;SDS011;35570;48.218;16.326;2023-03-31T03:40:53;3.60;;;2.35;;
49678;SDS011;35570;48.218;16.326;2023-03-31T03:43:20;4.03;;;2.60;;
49678;SDS011;35570;48.218;16.326;2023-03-31T03:45:50;6.40;;;3.35;;
49678;SDS011;35570;48.218;16.326;2023-03-31T03:48:16;3.70;;;2.50;;
49678;SDS011;35570;48.218;16.326;2023-03-31T03:50:45;6.85;;;3.10;;
49678;SDS011;35570;48.218;16.326;2023-03-31T03:53:14;5.70;;;2.72;;
49678;SDS011;35570;48.218;16.326;2023-03-31T03:55:40;6.93;;;4.22;;
49678;SDS011;35570;48.218;16.326;2023-03-31T03:58:06;7.72;;;5.70;;
49678;SDS011;35570;48.218;16.326;2023-03-31T04:00:32;9.13;;;5.75;;
49678;SDS011;35570;48.218;16.326;2023-03-31T04:02:58;8.80;;;5.35;;
49678;SDS011;35570;48.218;16.326;2023-03-31T04:05:24;10.02;;;5.82;;
49678;SDS011;35570;48.218;16.326;2023-03-31T04:07:51;5.97;;;5.00;;
49678;SDS011;35570;48.218;16.326;2023-03-31T04:10:17;7.82;;;5.15;;
49678;SDS011;35570;48.218;16.326;2023-03-31T04:12:43;7.20;;;5.10;;
49678;SDS011;35570;48.218;16.326;2023-03-31T04:15:08;8.02;;;5.07;;
49678;SDS011;35570;48.218;16.326;2023-03-31T04:17:34;8.75;;;5.25;;
49678;SDS011;35570;48.218;16.326;2023-03-31T04:20:03;9.13;;;5.85;;
49678;SDS011;35570;48.218;16.326;2023-03-31T04:22:32;9.27;;;5.40;;
49678;SDS011;35570;48.218;16.326;2023-03-31T04:25:03;10.07;;;5.90;;
49678;SDS011;35570;48.218;16.326;2023-03-31T04:27:34;11.88;;;5.97;;
49678;SDS011;35570;48.218;16.326;2023-03-31T04:30:00;8.65;;;6.38;;
49678;SDS011;35570;48.218;16.326;2023-03-31T04:32:26;8.88;;;5.63;;
49678;SDS011;35570;48.218;16.326;2023-03-31T04:34:52;11.80;;;6.55;;
49678;SDS011;35570;48.218;16.326;2023-03-31T04:37:28;12.63;;;5.97;;
49678;SDS011;35570;48.218;16.326;2023-03-31T04:40:01;9.68;;;5.13;;
49678;SDS011;35570;48.218;16.326;2023-03-31T04:42:34;8.57;;;4.70;;
49678;SDS011;35570;48.218;16.326;2023-03-31T04:45:00;8.15;;;4.68;;
49678;SDS011;35570;48.218;16.326;2023-03-31T04:47:26;6.90;;;4.18;;
49678;SDS011;35570;48.218;16.326;2023-03-31T04:49:52;9.65;;;4.38;;
49678;SDS011;35570;48.218;16.326;2023-03-31T04:52:18;8.50;;;4.90;;
49678;SDS011;35570;48.218;16.326;2023-03-31T04:54:43;6.18;;;4.10;;
49678;SDS011;35570;48.218;16.326;2023-03-31T04:57:09;7.53;;;4.20;;
49678;SDS011;35570;48.218;16.326;2023-03-31T04:59:35;8.85;;;4.13;;
49678;SDS011;35570;48.218;16.326;2023-03-31T05:02:20;8.93;;;4.43;;
49678;SDS011;35570;48.218;16.326;2023-03-31T05:04:49;5.32;;;3.00;;
49678;SDS011;35570;48.218;16.326;2023-03-31T05:07:16;6.13;;;3.40;;
49678;SDS011;35570;48.218;16.326;2023-03-31T05:09:42;4.70;;;3.47;;
49678;SDS011;35570;48.218;16.326;2023-03-31T05:12:08;7.03;;;3.28;;
49678;SDS011;35570;48.218;16.326;2023-03-31T05:14:34;7.10;;;3.70;;
49678;SDS011;35570;48.218;16.326;2023-03-31T05:17:00;9.32;;;4.38;;
49678;SDS011;35570;48.218;16.326;2023-03-31T05:21:53;11.13;;;6.13;;
49678;SDS011;35570;48.218;16.326;2023-03-31T05:24:19;8.82;;;4.68;;
49678;SDS011;35570;48.218;16.326;2023-03-31T05:26:45;7.35;;;3.67;;
49678;SDS011;35570;48.218;16.326;2023-03-31T05:29:17;7.68;;;3.80;;
49678;SDS011;35570;48.218;16.326;2023-03-31T05:31:43;8.00;;;4.05;;
49678;SDS011;35570;48.218;16.326;2023-03-31T05:34:08;5.60;;;3.40;;
49678;SDS011;35570;48.218;16.326;2023-03-31T05:36:34;5.38;;;3.60;;
49678;SDS011;35570;48.218;16.326;2023-03-31T05:39:01;4.45;;;3.42;;
49678;SDS011;35570;48.218;16.326;2023-03-31T05:41:28;5.90;;;3.72;;
49678;SDS011;35570;48.218;16.326;2023-03-31T05:43:54;4.38;;;3.50;;
49678;SDS011;35570;48.218;16.326;2023-03-31T05:46:21;6.03;;;3.70;;
49678;SDS011;35570;48.218;16.326;2023-03-31T05:48:47;8.88;;;4.75;;
49678;SDS011;35570;48.218;16.326;2023-03-31T05:51:12;10.48;;;5.07;;
49678;SDS011;35570;48.218;16.326;2023-03-31T05:53:38;12.82;;;7.18;;
49678;SDS011;35570;48.218;16.326;2023-03-31T05:56:05;12.27;;;6.45;;
49678;SDS011;35570;48.218;16.326;2023-03-31T05:58:35;10.75;;;5.38;;
49678;SDS011;35570;48.218;16.326;2023-03-31T06:01:06;11.55;;;6.00;;
49678;SDS011;35570;48.218;16.326;2023-03-31T06:03:34;12.20;;;6.50;;
49678;SDS011;35570;48.218;16.326;2023-03-31T06:06:01;12.25;;;6.75;;
49678;SDS011;35570;48.218;16.326;2023-03-31T06:08:27;12.27;;;6.82;;
49678;SDS011;35570;48.218;16.326;2023-03-31T06:10:53;12.40;;;6.40;;
49678;SDS011;35570;48.218;16.326;2023-03-31T06:13:19;14.85;;;7.53;;
49678;SDS011;35570;48.218;16.326;2023-03-31T06:15:53;13.18;;;7.93;;
49678;SDS011;35570;48.218;16.326;2023-03-31T06:18:19;11.70;;;7.30;;
49678;SDS011;35570;48.218;16.326;2023-03-31T06:20:44;13.30;;;7.63;;
49678;SDS011;35570;48.218;16.326;2023-03-31T06:23:10;12.02;;;6.18;;
49678;SDS011;35570;48.218;16.326;2023-03-31T06:25:39;17.98;;;6.00;;
49678;SDS011;35570;48.218;16.326;2023-03-31T06:28:05;12.25;;;5.57;;
49678;SDS011;35570;48.218;16.326;2023-03-31T06:30:31;10.07;;;7.10;;
49678;SDS011;35570;48.218;16.326;2023-03-31T06:32:58;9.40;;;6.40;;
49678;SDS011;35570;48.218;16.326;2023-03-31T06:35:24;8.18;;;5.82;;
49678;SDS011;35570;48.218;16.326;2023-03-31T06:37:50;11.00;;;5.97;;
49678;SDS011;35570;48.218;16.326;2023-03-31T06:40:16;10.88;;;6.50;;
49678;SDS011;35570;48.218;16.326;2023-03-31T06:42:43;9.90;;;5.20;;
49678;SDS011;35570;48.218;16.326;2023-03-31T06:45:09;10.82;;;2.92;;
49678;SDS011;35570;48.218;16.326;2023-03-31T06:47:35;8.85;;;2.67;;
49678;SDS011;35570;48.218;16.326;2023-03-31T06:50:05;9.75;;;3.00;;
49678;SDS011;35570;48.218;16.326;2023-03-31T06:52:32;9.55;;;2.45;;
49678;SDS011;35570;48.218;16.326;2023-03-31T06:54:58;7.03;;;2.30;;
49678;SDS011;35570;48.218;16.326;2023-03-31T06:57:25;4.45;;;2.17;;
49678;SDS011;35570;48.218;16.326;2023-03-31T06:59:51;11.68;;;2.88;;
49678;SDS011;35570;48.218;16.326;2023-03-31T07:02:23;7.90;;;2.75;;
49678;SDS011;35570;48.218;16.326;2023-03-31T07:04:49;8.77;;;2.53;;
49678;SDS011;35570;48.218;16.326;2023-03-31T07:07:14;6.35;;;2.47;;
49678;SDS011;35570;48.218;16.326;2023-03-31T07:09:40;6.53;;;3.08;;
49678;SDS011;35570;48.218;16.326;2023-03-31T07:12:06;8.35;;;2.83;;
49678;SDS011;35570;48.218;16.326;2023-03-31T07:14:32;6.80;;;3.03;;
49678;SDS011;35570;48.218;16.326;2023-03-31T07:16:58;5.90;;;2.45;;
49678;SDS011;35570;48.218;16.326;2023-03-31T07:19:23;18.23;;;5.88;;
49678;SDS011;35570;48.218;16.326;2023-03-31T07:21:49;6.80;;;2.60;;
49678;SDS011;35570;48.218;16.326;2023-03-31T07:24:15;4.85;;;1.90;;
49678;SDS011;35570;48.218;16.326;2023-03-31T07:26:41;3.88;;;1.73;;
49678;SDS011;35570;48.218;16.326;2023-03-31T07:29:09;5.60;;;1.90;;
49678;SDS011;35570;48.218;16.326;2023-03-31T07:31:35;4.30;;;1.58;;
49678;SDS011;35570;48.218;16.326;2023-03-31T07:34:01;6.68;;;2.20;;
49678;SDS011;35570;48.218;16.326;2023-03-31T07:36:27;9.10;;;2.80;;
49678;SDS011;35570;48.218;16.326;2023-03-31T07:38:54;8.75;;;2.85;;
49678;SDS011;35570;48.218;16.326;2023-03-31T07:41:20;6.22;;;2.40;;
49678;SDS011;35570;48.218;16.326;2023-03-31T07:43:47;5.88;;;2.38;;
49678;SDS011;35570;48.218;16.326;2023-03-31T07:46:18;6.07;;;2.95;;
49678;SDS011;35570;48.218;16.326;2023-03-31T07:48:46;7.18;;;2.72;;
49678;SDS011;35570;48.218;16.326;2023-03-31T07:51:13;11.32;;;3.03;;
49678;SDS011;35570;48.218;16.326;2023-03-31T07:53:40;8.82;;;4.07;;
49678;SDS011;35570;48.218;16.326;2023-03-31T07:56:12;9.45;;;3.67;;
49678;SDS011;35570;48.218;16.326;2023-03-31T07:58:38;10.25;;;4.05;;
49678;SDS011;35570;48.218;16.326;2023-03-31T08:01:03;7.93;;;3.58;;
49678;SDS011;35570;48.218;16.326;2023-03-31T08:03:29;8.73;;;4.25;;
49678;SDS011;35570;48.218;16.326;2023-03-31T08:05:56;10.23;;;3.65;;
49678;SDS011;35570;48.218;16.326;2023-03-31T08:08:22;10.25;;;4.47;;
49678;SDS011;35570;48.218;16.326;2023-03-31T08:10:50;12.00;;;4.15;;
49678;SDS011;35570;48.218;16.326;2023-03-31T08:13:15;9.15;;;4.07;;
49678;SDS011;35570;48.218;16.326;2023-03-31T08:15:41;12.45;;;4.13;;
49678;SDS011;35570;48.218;16.326;2023-03-31T08:18:07;10.20;;;3.03;;
49678;SDS011;35570;48.218;16.326;2023-03-31T08:20:32;7.18;;;2.90;;
49678;SDS011;35570;48.218;16.326;2023-03-31T08:22:59;7.80;;;2.35;;
49678;SDS011;35570;48.218;16.326;2023-03-31T08:25:25;7.68;;;2.65;;
49678;SDS011;35570;48.218;16.326;2023-03-31T08:27:50;6.25;;;2.45;;
49678;SDS011;35570;48.218;16.326;2023-03-31T08:30:17;6.53;;;2.95;;
49678;SDS011;35570;48.218;16.326;2023-03-31T08:32:44;9.65;;;3.05;;
49678;SDS011;35570;48.218;16.326;2023-03-31T08:35:10;7.43;;;2.70;;
49678;SDS011;35570;48.218;16.326;2023-03-31T08:37:36;8.98;;;2.70;;
49678;SDS011;35570;48.218;16.326;2023-03-31T08:40:06;7.00;;;2.90;;
49678;SDS011;35570;48.218;16.326;2023-03-31T08:42:37;8.20;;;2.78;;
49678;SDS011;35570;48.218;16.326;2023-03-31T08:47:46;8.95;;;3.15;;
49678;SDS011;35570;48.218;16.326;2023-03-31T08:50:16;8.90;;;2.92;;
49678;SDS011;35570;48.218;16.326;2023-03-31T08:53:04;16.58;;;4.93;;
49678;SDS011;35570;48.218;16.326;2023-03-31T08:55:52;9.75;;;3.28;;
49678;SDS011;35570;48.218;16.326;2023-03-31T09:04:32;8.50;;;3.10;;
49678;SDS011;35570;48.218;16.326;2023-03-31T09:07:03;7.35;;;2.92;;
49678;SDS011;35570;48.218;16.326;2023-03-31T09:17:50;7.35;;;3.47;;
49678;SDS011;35570;48.218;16.326;2023-03-31T09:20:21;7.72;;;3.40;;
49678;SDS011;35570;48.218;16.326;2023-03-31T09:25:34;5.25;;;2.75;;
49678;SDS011;35570;48.218;16.326;2023-03-31T09:28:03;8.50;;;3.30;;
49678;SDS011;35570;48.218;16.326;2023-03-31T09:30:39;8.27;;;2.80;;
49678;SDS011;35570;48.218;16.326;2023-03-31T09:33:10;8.52;;;3.00;;
49678;SDS011;35570;48.218;16.326;2023-03-31T09:35:41;5.85;;;2.80;;
49678;SDS011;35570;48.218;16.326;2023-03-31T09:38:10;7.13;;;2.58;;
49678;SDS011;35570;48.218;16.326;2023-03-31T09:40:37;8.32;;;3.28;;
49678;SDS011;35570;48.218;16.326;2023-03-31T09:43:04;5.15;;;2.70;;
49678;SDS011;35570;48.218;16.326;2023-03-31T09:45:51;4.65;;;2.28;;
49678;SDS011;35570;48.218;16.326;2023-03-31T09:48:18;9.23;;;3.17;;
49678;SDS011;35570;48.218;16.326;2023-03-31T09:51:06;6.75;;;3.33;;
49678;SDS011;35570;48.218;16.326;2023-03-31T09:53:42;7.20;;;3.08;;
49678;SDS011;35570;48.218;16.326;2023-03-31T09:56:13;9.32;;;3.30;;
49678;SDS011;35570;48.218;16.326;2023-03-31T09:59:18;6.90;;;4.05;;
49678;SDS011;35570;48.218;16.326;2023-03-31T10:01:55;10.57;;;3.70;;
49678;SDS011;35570;48.218;16.326;2023-03-31T10:04:23;4.88;;;3.15;;
49678;SDS011;35570;48.218;16.326;2023-03-31T10:06:52;7.43;;;3.00;;
49678;SDS011;35570;48.218;16.326;2023-03-31T10:09:19;6.38;;;3.08;;
49678;SDS011;35570;48.218;16.326;2023-03-31T10:12:01;10.18;;;2.90;;
49678;SDS011;35570;48.218;16.326;2023-03-31T10:14:43;4.18;;;2.92;;
49678;SDS011;35570;48.218;16.326;2023-03-31T10:17:18;5.40;;;2.80;;
49678;SDS011;35570;48.218;16.326;2023-03-31T10:19:59;7.35;;;3.45;;
49678;SDS011;35570;48.218;16.326;2023-03-31T10:22:42;8.70;;;3.30;;
49678;SDS011;35570;48.218;16.326;2023-03-31T10:25:14;6.90;;;3.45;;
49678;SDS011;35570;48.218;16.326;2023-03-31T10:27:42;7.30;;;3.75;;
49678;SDS011;35570;48.218;16.326;2023-03-31T10:30:16;7.40;;;3.50;;
49678;SDS011;35570;48.218;16.326;2023-03-31T10:32:46;5.97;;;3.30;;
49678;SDS011;35570;48.218;16.326;2023-03-31T10:37:59;5.40;;;3.20;;
49678;SDS011;35570;48.218;16.326;2023-03-31T10:40:37;8.18;;;4.00;;
49678;SDS011;35570;48.218;16.326;2023-03-31T10:53:50;6.32;;;3.80;;
49678;SDS011;35570;48.218;16.326;2023-03-31T10:59:21;5.60;;;3.30;;
49678;SDS011;35570;48.218;16.326;2023-03-31T11:32:51;8.00;;;3.50;;
49678;SDS011;35570;48.218;16.326;2023-03-31T11:43:45;7.93;;;3.38;;
49678;SDS011;35570;48.218;16.326;2023-03-31T11:46:15;6.90;;;3.17;;
49678;SDS011;35570;48.218;16.326;2023-03-31T11:48:52;4.95;;;2.70;;
49678;SDS011;35570;48.218;16.326;2023-03-31T11:54:23;6.43;;;2.95;;
49678;SDS011;35570;48.218;16.326;2023-03-31T11:56:53;5.18;;;2.53;;
49678;SDS011;35570;48.218;16.326;2023-03-31T11:59:20;5.05;;;2.50;;
49678;SDS011;35570;48.218;16.326;2023-03-31T12:04:55;6.30;;;2.28;;
49678;SDS011;35570;48.218;16.326;2023-03-31T12:07:28;6.70;;;2.40;;
49678;SDS011;35570;48.218;16.326;2023-03-31T12:12:56;4.40;;;2.35;;
49678;SDS011;35570;48.218;16.326;2023-03-31T12:15:42;3.63;;;2.60;;
49678;SDS011;35570;48.218;16.326;2023-03-31T12:18:17;4.68;;;2.70;;
49678;SDS011;35570;48.218;16.326;2023-03-31T12:20:51;3.67;;;2.45;;
49678;SDS011;35570;48.218;16.326;2023-03-31T12:23:24;4.30;;;2.35;;
49678;SDS011;35570;48.218;16.326;2023-03-31T12:28:37;7.25;;;2.80;;
49678;SDS011;35570;48.218;16.326;2023-03-31T12:31:04;5.55;;;2.88;;
49678;SDS011;35570;48.218;16.326;2023-03-31T12:33:37;3.30;;;2.47;;
49678;SDS011;35570;48.218;16.326;2023-03-31T12:38:49;7.25;;;2.75;;
49678;SDS011;35570;48.218;16.326;2023-03-31T12:44:37;5.82;;;2.60;;
49678;SDS011;35570;48.218;16.326;2023-03-31T12:49:53;3.97;;;2.20;;
49678;SDS011;35570;48.218;16.326;2023-03-31T13:03:36;3.72;;;2.20;;
49678;SDS011;35570;48.218;16.326;2023-03-31T13:08:54;3.00;;;1.83;;
49678;SDS011;35570;48.218;16.326;2023-03-31T13:16:30;4.68;;;1.80;;
49678;SDS011;35570;48.218;16.326;2023-03-31T13:18:58;5.38;;;1.90;;
49678;SDS011;35570;48.218;16.326;2023-03-31T13:21:24;3.63;;;1.98;;
49678;SDS011;35570;48.218;16.326;2023-03-31T13:23:50;3.30;;;1.60;;
49678;SDS011;35570;48.218;16.326;2023-03-31T13:26:39;2.92;;;1.63;;
49678;SDS011;35570;48.218;16.326;2023-03-31T13:29:10;2.50;;;1.50;;
49678;SDS011;35570;48.218;16.326;2023-03-31T13:37:12;2.22;;;1.40;;
49678;SDS011;35570;48.218;16.326;2023-03-31T13:45:26;2.88;;;1.45;;
49678;SDS011;35570;48.218;16.326;2023-03-31T13:54:14;3.50;;;1.40;;
49678;SDS011;35570;48.218;16.326;2023-03-31T14:02:37;5.10;;;1.92;;
49678;SDS011;35570;48.218;16.326;2023-03-31T14:05:22;4.10;;;1.52;;
49678;SDS011;35570;48.218;16.326;2023-03-31T14:07:52;3.50;;;1.70;;
49678;SDS011;35570;48.218;16.326;2023-03-31T14:10:34;2.33;;;1.30;;
49678;SDS011;35570;48.218;16.326;2023-03-31T14:13:12;4.18;;;1.50;;
49678;SDS011;35570;48.218;16.326;2023-03-31T14:18:26;3.58;;;1.60;;
49678;SDS011;35570;48.218;16.326;2023-03-31T14:24:04;3.97;;;1.73;;
49678;SDS011;35570;48.218;16.326;2023-03-31T14:32:21;4.30;;;1.60;;
49678;SDS011;35570;48.218;16.326;2023-03-31T14:35:11;5.25;;;1.73;;
49678;SDS011;35570;48.218;16.326;2023-03-31T14:37:50;3.42;;;1.65;;
49678;SDS011;35570;48.218;16.326;2023-03-31T14:40:17;5.50;;;2.38;;
49678;SDS011;35570;48.218;16.326;2023-03-31T14:42:44;3.17;;;1.88;;
49678;SDS011;35570;48.218;16.326;2023-03-31T14:45:23;3.90;;;1.80;;
49678;SDS011;35570;48.218;16.326;2023-03-31T14:47:57;4.85;;;1.77;;
49678;SDS011;35570;48.218;16.326;2023-03-31T14:50:32;4.43;;;1.38;;
49678;SDS011;35570;48.218;16.326;2023-03-31T14:52:59;3.92;;;1.83;;
49678;SDS011;35570;48.218;16.326;2023-03-31T14:55:27;3.33;;;1.77;;
49678;SDS011;35570;48.218;16.326;2023-03-31T14:57:55;3.83;;;1.88;;
49678;SDS011;35570;48.218;16.326;2023-03-31T15:00:31;5.15;;;2.00;;
49678;SDS011;35570;48.218;16.326;2023-03-31T15:02:59;5.50;;;2.22;;
49678;SDS011;35570;48.218;16.326;2023-03-31T15:05:34;2.55;;;1.70;;
49678;SDS011;35570;48.218;16.326;2023-03-31T15:08:02;3.22;;;1.83;;
49678;SDS011;35570;48.218;16.326;2023-03-31T15:10:36;3.22;;;1.40;;
49678;SDS011;35570;48.218;16.326;2023-03-31T15:13:08;4.28;;;1.65;;
49678;SDS011;35570;48.218;16.326;2023-03-31T15:15:35;3.13;;;1.70;;
49678;SDS011;35570;48.218;16.326;2023-03-31T15:18:01;2.95;;;1.52;;
49678;SDS011;35570;48.218;16.326;2023-03-31T15:23:00;2.25;;;1.17;;
49678;SDS011;35570;48.218;16.326;2023-03-31T15:25:29;2.67;;;1.38;;
49678;SDS011;35570;48.218;16.326;2023-03-31T15:28:01;4.07;;;1.05;;
49678;SDS011;35570;48.218;16.326;2023-03-31T15:30:30;4.15;;;1.00;;
49678;SDS011;35570;48.218;16.326;2023-03-31T15:32:56;4.60;;;0.90;;
49678;SDS011;35570;48.218;16.326;2023-03-31T15:37:56;2.72;;;0.70;;
49678;SDS011;35570;48.218;16.326;2023-03-31T15:40:27;3.83;;;0.88;;
49678;SDS011;35570;48.218;16.326;2023-03-31T15:43:08;2.17;;;0.90;;
49678;SDS011;35570;48.218;16.326;2023-03-31T15:45:44;1.88;;;0.80;;
49678;SDS011;35570;48.218;16.326;2023-03-31T15:53:42;2.20;;;0.80;;
49678;SDS011;35570;48.218;16.326;2023-03-31T16:01:30;2.42;;;0.90;;
49678;SDS011;35570;48.218;16.326;2023-03-31T16:04:05;3.42;;;1.30;;
49678;SDS011;35570;48.218;16.326;2023-03-31T16:09:56;3.78;;;1.70;;
49678;SDS011;35570;48.218;16.326;2023-03-31T16:12:09;2.53;;;1.55;;
49678;SDS011;35570;48.218;16.326;2023-03-31T16:14:50;2.95;;;1.30;;
49678;SDS011;35570;48.218;16.326;2023-03-31T16:17:25;2.15;;;1.17;;
49678;SDS011;35570;48.218;16.326;2023-03-31T16:20:02;2.00;;;1.10;;
49678;SDS011;35570;48.218;16.326;2023-03-31T16:22:37;2.13;;;1.08;;
49678;SDS011;35570;48.218;16.326;2023-03-31T16:25:13;1.88;;;1.05;;
49678;SDS011;35570;48.218;16.326;2023-03-31T16:27:52;5.18;;;1.40;;
49678;SDS011;35570;48.218;16.326;2023-03-31T16:30:21;2.80;;;1.25;;
49678;SDS011;35570;48.218;16.326;2023-03-31T16:33:13;5.65;;;1.58;;
49678;SDS011;35570;48.218;16.326;2023-03-31T16:35:47;3.63;;;1.20;;
49678;SDS011;35570;48.218;16.326;2023-03-31T16:38:20;2.80;;;1.50;;
49678;SDS011;35570;48.218;16.326;2023-03-31T16:40:48;3.15;;;1.50;;
49678;SDS011;35570;48.218;16.326;2023-03-31T16:43:24;2.28;;;1.55;;
49678;SDS011;35570;48.218;16.326;2023-03-31T16:45:58;3.03;;;1.38;;
49678;SDS011;35570;48.218;16.326;2023-03-31T16:48:27;4.55;;;2.03;;
49678;SDS011;35570;48.218;16.326;2023-03-31T16:50:55;2.92;;;1.70;;
49678;SDS011;35570;48.218;16.326;2023-03-31T16:53:23;3.20;;;1.52;;
49678;SDS011;35570;48.218;16.326;2023-03-31T16:55:52;3.42;;;1.50;;
49678;SDS011;35570;48.218;16.326;2023-03-31T16:58:19;3.72;;;1.52;;
49678;SDS011;35570;48.218;16.326;2023-03-31T17:00:45;3.35;;;1.40;;
49678;SDS011;35570;48.218;16.326;2023-03-31T17:03:12;3.53;;;1.90;;
49678;SDS011;35570;48.218;16.326;2023-03-31T17:05:43;3.67;;;1.73;;
49678;SDS011;35570;48.218;16.326;2023-03-31T17:08:11;3.42;;;1.70;;
49678;SDS011;35570;48.218;16.326;2023-03-31T17:10:38;2.88;;;1.90;;
49678;SDS011;35570;48.218;16.326;2023-03-31T17:13:05;3.65;;;1.75;;
49678;SDS011;35570;48.218;16.326;2023-03-31T17:15:32;4.97;;;1.88;;
49678;SDS011;35570;48.218;16.326;2023-03-31T17:18:00;5.00;;;2.30;;
49678;SDS011;35570;48.218;16.326;2023-03-31T17:20:27;4.30;;;2.33;;
49678;SDS011;35570;48.218;16.326;2023-03-31T17:22:54;4.40;;;2.20;;
49678;SDS011;35570;48.218;16.326;2023-03-31T17:25:20;4.07;;;2.10;;
49678;SDS011;35570;48.218;16.326;2023-03-31T17:27:46;3.90;;;2.58;;
49678;SDS011;35570;48.218;16.326;2023-03-31T17:30:13;5.35;;;2.20;;
49678;SDS011;35570;48.218;16.326;2023-03-31T17:32:39;6.20;;;2.33;;
49678;SDS011;35570;48.218;16.326;2023-03-31T17:35:06;2.38;;;1.67;;
49678;SDS011;35570;48.218;16.326;2023-03-31T17:37:35;1.83;;;1.52;;
49678;SDS011;35570;48.218;16.326;2023-03-31T17:40:03;4.15;;;1.17;;
49678;SDS011;35570;48.218;16.326;2023-03-31T17:42:30;4.85;;;1.92;;
49678;SDS011;35570;48.218;16.326;2023-03-31T17:44:56;3.08;;;1.40;;
49678;SDS011;35570;48.218;16.326;2023-03-31T17:47:22;3.53;;;1.25;;
49678;SDS011;35570;48.218;16.326;2023-03-31T17:49:48;2.72;;;1.10;;
49678;SDS011;35570;48.218;16.326;2023-03-31T17:52:14;3.88;;;1.42;;
49678;SDS011;35570;48.218;16.326;2023-03-31T17:54:40;4.72;;;1.13;;
49678;SDS011;35570;48.218;16.326;2023-03-31T17:57:06;3.17;;;1.25;;
49678;SDS011;35570;48.218;16.326;2023-03-31T17:59:33;2.45;;;1.27;;
49678;SDS011;35570;48.218;16.326;2023-03-31T18:01:59;1.35;;;0.90;;
49678;SDS011;35570;48.218;16.326;2023-03-31T18:04:25;1.88;;;1.10;;
49678;SDS011;35570;48.218;16.326;2023-03-31T18:06:52;2.60;;;1.00;;
49678;SDS011;35570;48.218;16.326;2023-03-31T18:09:19;3.15;;;1.30;;
49678;SDS011;35570;48.218;16.326;2023-03-31T18:11:45;2.67;;;1.50;;
49678;SDS011;35570;48.218;16.326;2023-03-31T18:14:11;3.70;;;1.30;;
49678;SDS011;35570;48.218;16.326;2023-03-31T18:16:37;2.67;;;1.17;;
49678;SDS011;35570;48.218;16.326;2023-03-31T18:19:03;3.92;;;1.10;;
49678;SDS011;35570;48.218;16.326;2023-03-31T18:21:29;3.55;;;1.20;;
49678;SDS011;35570;48.218;16.326;2023-03-31T18:23:55;1.95;;;1.13;;
49678;SDS011;35570;48.218;16.326;2023-03-31T18:26:22;3.20;;;1.17;;
49678;SDS011;35570;48.218;16.326;2023-03-31T18:28:52;3.17;;;1.35;;